Time;durP1;ratioP1;P1;durP2;ratioP2;P2;SDS_P1;SDS_P2;PMS_P1;PMS_P2;Temp;Humidity;BMP_temperature;BMP_pressure;BME280_temperature;BME280_humidity;BME280_pressure;Samples;Min_cycle;Max_cycle;Signal;HPM_P1;HPM_P2
2023/06/05 00:02:23;;;;;;;;;;;;;;;11.03;38.39;101587.52;105477;1297;71544;-87
2023/06/05 00:05:09;;;;;;;;;;;;;;;10.91;38.48;101588.94;105554;1297;59130;-87
2023/06/05 00:07:55;;;;;;;;;;;;;;;10.90;38.64;101589.30;105660;1297;59044;-86
2023/06/05 00:10:41;;;;;;;;;;;;;;;10.90;38.66;101586.37;105646;1297;74328;-86
2023/06/05 00:13:27;;;;;;;;;;;;;;;10.87;38.64;101592.92;105572;1300;68217;-86
2023/06/05 00:16:13;;;;;;;;;;;;;;;10.79;38.61;101597.25;105549;1297;73033;-86
2023/06/05 00:18:59;;;;;;;;;;;;;;;10.68;38.67;101596.56;105686;1297;58966;-86
2023/06/05 00:21:44;;;;;;;;;;;;;;;10.62;38.91;101593.29;105695;1297;58965;-86
2023/06/05 00:24:30;;;;;;;;;;;;;;;10.60;39.00;101591.73;105629;1297;73362;-86
2023/06/05 00:27:16;;;;;;;;;;;;;;;10.64;39.10;101592.77;105577;1298;67386;-85
2023/06/05 00:30:02;;;;;;;;;;;;;;;10.64;39.01;101585.70;105578;1299;72517;-86
2023/06/05 00:32:48;;;;;;;;;;;;;;;10.62;39.15;101590.52;105624;1301;59429;-86
2023/06/05 00:35:34;;;;;;;;;;;;;;;10.59;39.31;101590.88;105578;1299;60341;-86
2023/06/05 00:38:20;;;;;;;;;;;;;;;10.55;39.29;101597.61;105458;1299;73337;-85
2023/06/05 00:41:06;;;;;;;;;;;;;;;10.55;39.44;101594.33;105541;1298;66462;-86
2023/06/05 00:43:52;;;;;;;;;;;;;;;10.53;39.48;101597.60;105466;1301;72451;-86
2023/06/05 00:46:38;;;;;;;;;;;;;;;10.45;39.49;101597.09;105604;1297;59082;-86
2023/06/05 00:49:25;;;;;;;;;;;;;;;10.45;39.57;101599.15;105662;1296;59959;-86
2023/06/05 00:52:11;;;;;;;;;;;;;;;10.41;39.54;101599.16;105689;1297;73956;-86
2023/06/05 00:54:57;;;;;;;;;;;;;;;10.41;39.73;101595.52;105526;1297;67279;-86
2023/06/05 00:57:44;;;;;;;;;;;;;;;10.42;39.88;101594.85;105589;1298;71814;-86
2023/06/05 01:00:30;;;;;;;;;;;;;;;10.42;39.76;101593.98;105565;1296;59041;-86
2023/06/05 01:03:17;;;;;;;;;;;;;;;10.45;39.92;101592.77;105696;1296;60647;-85
2023/06/05 01:06:05;;;;;;;;;;;;;;;10.48;39.90;101589.16;105578;1297;72230;-86
2023/06/05 01:08:52;;;;;;;;;;;;;;;10.47;39.88;101589.50;105637;1300;67183;-86
2023/06/05 01:11:38;;;;;;;;;;;;;;;10.41;39.94;101587.61;105516;1297;72214;-86
2023/06/05 01:14:27;;;;;;;;;;;;;;;10.40;40.01;101585.71;105579;1297;59013;-85
2023/06/05 01:17:13;;;;;;;;;;;;;;;10.38;40.14;101587.80;105623;1297;59423;-86
2023/06/05 01:20:08;;;;;;;;;;;;;;;10.35;40.17;101584.88;105567;1298;73275;-86
2023/06/05 01:22:53;;;;;;;;;;;;;;;10.28;40.05;101584.17;105542;1297;68455;-86
2023/06/05 01:25:42;;;;;;;;;;;;;;;10.21;40.13;101589.52;105510;1299;71294;-86
2023/06/05 01:28:30;;;;;;;;;;;;;;;10.15;40.18;101588.27;105556;1298;59042;-85
2023/06/05 01:31:19;;;;;;;;;;;;;;;10.06;40.15;101592.55;105575;1297;60122;-86
2023/06/05 01:34:08;;;;;;;;;;;;;;;9.99;40.43;101590.30;105606;1297;74585;-85
2023/06/05 01:36:55;;;;;;;;;;;;;;;9.99;40.53;101586.69;105563;1298;68923;-85
2023/06/05 01:39:42;;;;;;;;;;;;;;;9.99;40.63;101585.98;105586;1297;71180;-86
2023/06/05 01:42:28;;;;;;;;;;;;;;;10.00;40.63;101585.13;105590;1297;59523;-85
2023/06/05 01:45:15;;;;;;;;;;;;;;;9.98;40.79;101591.68;105557;1297;59508;-86
2023/06/05 01:48:02;;;;;;;;;;;;;;;9.96;40.77;101587.88;105605;1297;72493;-86
2023/06/05 01:50:48;;;;;;;;;;;;;;;9.92;40.87;101588.40;105571;1299;69310;-86
2023/06/05 01:53:34;;;;;;;;;;;;;;;9.84;40.90;101590.46;105557;1298;70254;-86
2023/06/05 01:56:19;;;;;;;;;;;;;;;9.79;40.92;101591.48;105569;1298;59041;-86
2023/06/05 01:59:06;;;;;;;;;;;;;;;9.77;41.08;101584.77;105566;1297;59252;-86
2023/06/05 02:01:52;;;;;;;;;;;;;;;9.81;41.01;101587.19;105590;1297;73390;-86
2023/06/05 02:04:38;;;;;;;;;;;;;;;9.78;41.04;101584.25;105669;1297;67490;-86
2023/06/05 02:07:24;;;;;;;;;;;;;;;9.72;41.05;101587.85;105539;1299;72023;-86
2023/06/05 02:10:10;;;;;;;;;;;;;;;9.65;41.23;101584.02;105631;1297;59448;-86
2023/06/05 02:12:56;;;;;;;;;;;;;;;9.58;41.29;101580.91;105637;1297;59772;-86
2023/06/05 02:15:44;;;;;;;;;;;;;;;9.59;41.46;101579.36;105623;1297;73437;-86
2023/06/05 02:18:30;;;;;;;;;;;;;;;9.60;41.44;101578.85;105563;1297;67944;-86
2023/06/05 02:21:16;;;;;;;;;;;;;;;9.59;41.35;101580.40;105675;1296;71434;-86
2023/06/05 02:24:02;;;;;;;;;;;;;;;9.55;41.54;101577.98;105641;1297;59172;-86
2023/06/05 02:26:48;;;;;;;;;;;;;;;9.50;41.61;101578.48;105710;1297;59842;-86
2023/06/05 02:29:34;;;;;;;;;;;;;;;9.51;41.64;101578.83;105619;1297;73093;-86
2023/06/05 02:32:20;;;;;;;;;;;;;;;9.50;41.83;101576.23;105626;1297;67855;-86
2023/06/05 02:35:06;;;;;;;;;;;;;;;9.51;41.94;101578.47;105628;1300;71456;-86
2023/06/05 02:37:52;;;;;;;;;;;;;;;9.53;41.88;101577.96;105634;1297;59103;-86
2023/06/05 02:40:38;;;;;;;;;;;;;;;9.53;41.98;101580.55;105585;1298;58816;-86
2023/06/05 02:43:24;;;;;;;;;;;;;;;9.52;41.96;101576.76;105552;1298;72973;-86
2023/06/05 02:46:10;;;;;;;;;;;;;;;9.49;41.98;101575.72;105605;1297;68398;-86
2023/06/05 02:48:56;;;;;;;;;;;;;;;9.50;42.03;101575.02;105561;1297;71186;-86
2023/06/05 02:51:42;;;;;;;;;;;;;;;9.48;42.21;101576.73;105527;1297;59500;-86
2023/06/05 02:54:28;;;;;;;;;;;;;;;9.46;42.23;101576.73;105399;1299;58871;-86
2023/06/05 02:57:15;;;;;;;;;;;;;;;9.43;42.31;101574.31;105542;1297;74468;-86
2023/06/05 03:00:07;;;;;;;;;;;;;;;9.48;42.40;101571.92;105584;1298;67494;-86
2023/06/05 03:02:55;;;;;;;;;;;;;;;9.45;42.32;101572.25;105494;1297;71225;-86
2023/06/05 03:05:42;;;;;;;;;;;;;;;9.41;42.54;101576.38;105610;1297;59372;-86
2023/06/05 03:08:28;;;;;;;;;;;;;;;9.37;42.46;101574.97;105550;1297;62065;-86
2023/06/05 03:11:14;;;;;;;;;;;;;;;9.38;42.58;101574.46;105512;1297;74347;-86
2023/06/05 03:14:00;;;;;;;;;;;;;;;9.45;42.61;101575.01;105615;1297;68614;-86
2023/06/05 03:16:46;;;;;;;;;;;;;;;9.48;42.66;101580.01;105583;1297;72879;-86
2023/06/05 03:19:32;;;;;;;;;;;;;;;9.49;42.71;101579.49;105695;1297;58829;-86
2023/06/05 03:22:18;;;;;;;;;;;;;;;9.49;42.83;101578.81;105654;1296;59671;-86
2023/06/05 03:25:04;;;;;;;;;;;;;;;9.54;42.77;101577.96;105547;1297;73969;-86
2023/06/05 03:27:50;;;;;;;;;;;;;;;9.54;42.83;101578.31;105485;1299;67510;-86
2023/06/05 03:30:36;;;;;;;;;;;;;;;9.52;42.85;101576.41;105568;1297;71979;-86
2023/06/05 03:33:23;;;;;;;;;;;;;;;9.53;42.99;101582.10;105524;1297;59184;-86
2023/06/05 03:36:09;;;;;;;;;;;;;;;9.55;43.04;101578.83;105535;1299;59918;-86
2023/06/05 03:38:56;;;;;;;;;;;;;;;9.61;43.21;101577.30;105591;1296;74315;-86
2023/06/05 03:41:42;;;;;;;;;;;;;;;9.67;43.29;101575.43;105595;1297;68467;-86
2023/06/05 03:44:28;;;;;;;;;;;;;;;9.74;43.40;101575.96;105530;1297;72234;-86
2023/06/05 03:47:14;;;;;;;;;;;;;;;9.79;43.44;101575.81;105475;1297;59109;-87
2023/06/05 03:50:00;;;;;;;;;;;;;;;9.86;43.58;101576.35;105605;1297;59082;-86
2023/06/05 03:52:53;;;;;;;;;;;;;;;9.90;43.59;101574.79;105478;1297;73509;-86
2023/06/05 03:55:44;;;;;;;;;;;;;;;9.92;43.68;101576.16;105520;1297;68423;-86
2023/06/05 03:58:30;;;;;;;;;;;;;;;9.98;43.70;101572.55;105497;1297;71896;-86
2023/06/05 04:01:16;;;;;;;;;;;;;;;10.08;43.73;101572.23;105497;1297;59326;-86
2023/06/05 04:04:03;;;;;;;;;;;;;;;10.16;43.81;101569.84;105507;1297;59098;-86
2023/06/05 04:06:49;;;;;;;;;;;;;;;10.26;43.97;101571.77;105570;1297;73598;-86
2023/06/05 04:09:35;;;;;;;;;;;;;;;10.41;43.92;101569.69;105513;1297;67356;-86
2023/06/05 04:12:21;;;;;;;;;;;;;;;10.57;44.06;101571.23;105536;1296;72452;-84
2023/06/05 04:15:09;;;;;;;;;;;;;;;10.67;44.03;101570.17;105542;1297;59090;-84
2023/06/05 04:17:55;;;;;;;;;;;;;;;10.74;44.12;101564.48;105685;1297;59011;-87
2023/06/05 04:20:41;;;;;;;;;;;;;;;10.83;44.24;101566.54;105518;1297;74348;-86
2023/06/05 04:23:27;;;;;;;;;;;;;;;10.98;44.35;101562.68;105570;1297;67580;-85
2023/06/05 04:26:15;;;;;;;;;;;;;;;11.10;44.39;101563.52;105521;1297;72451;-86
2023/06/05 04:29:02;;;;;;;;;;;;;;;11.22;44.44;101564.52;105541;1298;59376;-86
2023/06/05 04:31:48;;;;;;;;;;;;;;;11.34;44.55;101564.66;105543;1299;60217;-85
2023/06/05 04:34:34;;;;;;;;;;;;;;;11.49;44.47;101566.46;105593;1298;74325;-85
2023/06/05 04:37:20;;;;;;;;;;;;;;;11.65;44.56;101566.89;105490;1297;67498;-85
2023/06/05 04:40:09;;;;;;;;;;;;;;;11.78;44.59;101563.91;105500;1297;72550;-85
2023/06/05 04:42:55;;;;;;;;;;;;;;;11.93;44.61;101566.59;105432;1297;58973;-86
2023/06/05 04:45:43;;;;;;;;;;;;;;;12.11;44.79;101565.42;105567;1297;59194;-86
2023/06/05 04:48:30;;;;;;;;;;;;;;;12.24;44.70;101563.08;105464;1299;74481;-86
2023/06/05 04:51:16;;;;;;;;;;;;;;;12.37;44.71;101562.29;105501;1299;69346;-87
2023/06/05 04:54:01;;;;;;;;;;;;;;;12.52;44.67;101558.33;105489;1297;72352;-87
2023/06/05 04:56:49;;;;;;;;;;;;;;;12.71;44.73;101560.57;105556;1297;59343;-87
2023/06/05 04:59:35;;;;;;;;;;;;;;;12.92;44.76;101554.30;105593;1297;59136;-87
2023/06/05 05:02:21;;;;;;;;;;;;;;;13.23;44.89;101553.60;105503;1297;74137;-87
2023/06/05 05:05:08;;;;;;;;;;;;;;;13.74;44.85;101553.09;105524;1299;69522;-87
2023/06/05 05:07:54;;;;;;;;;;;;;;;14.38;44.72;101551.59;105412;1299;72429;-87
2023/06/05 05:10:40;;;;;;;;;;;;;;;15.03;44.45;101552.13;105476;1297;59119;-87
2023/06/05 05:13:26;;;;;;;;;;;;;;;15.65;44.32;101553.08;105443;1297;59107;-87
2023/06/05 05:16:12;;;;;;;;;;;;;;;16.29;44.11;101549.67;105500;1297;73313;-87
2023/06/05 05:18:58;;;;;;;;;;;;;;;16.94;43.93;101553.38;105530;1297;67270;-88
2023/06/05 05:21:45;;;;;;;;;;;;;;;17.55;43.60;101552.83;105423;1299;71377;-88
2023/06/05 05:24:31;;;;;;;;;;;;;;;18.22;43.40;101552.98;105444;1297;59065;-88
2023/06/05 05:27:17;;;;;;;;;;;;;;;18.80;43.27;101552.74;105486;1297;59031;-87
2023/06/05 05:30:04;;;;;;;;;;;;;;;19.43;42.98;101555.14;105468;1297;73279;-88
2023/06/05 05:32:50;;;;;;;;;;;;;;;20.06;43.00;101560.55;105567;1297;69559;-88
2023/06/05 05:35:36;;;;;;;;;;;;;;;20.65;42.65;101559.29;105459;1297;72042;-88
2023/06/05 05:38:22;;;;;;;;;;;;;;;21.14;42.52;101561.89;105526;1297;59027;-88
2023/06/05 05:41:08;;;;;;;;;;;;;;;21.54;42.41;101560.20;105400;1296;59160;-88
2023/06/05 05:43:54;;;;;;;;;;;;;;;21.87;42.08;101560.75;105629;1297;73441;-88
2023/06/05 05:46:40;;;;;;;;;;;;;;;22.24;41.85;101563.88;105531;1297;67914;-88
2023/06/05 05:49:26;;;;;;;;;;;;;;;22.66;41.65;101567.02;105540;1297;73040;-88
2023/06/05 05:52:11;;;;;;;;;;;;;;;23.00;41.48;101566.45;105527;1297;58973;-88
2023/06/05 05:54:59;;;;;;;;;;;;;;;23.35;41.47;101572.16;105623;1296;59681;-88
2023/06/05 05:57:45;;;;;;;;;;;;;;;23.87;41.45;101572.59;105573;1297;74615;-88
2023/06/05 06:00:31;;;;;;;;;;;;;;;24.29;41.04;101574.23;105477;1297;67210;-88
2023/06/05 06:03:17;;;;;;;;;;;;;;;24.56;40.57;101574.07;105466;1297;72412;-88
2023/06/05 06:06:06;;;;;;;;;;;;;;;24.78;40.53;101575.36;105641;1297;58926;-88
2023/06/05 06:08:52;;;;;;;;;;;;;;;24.99;40.34;101573.57;105425;1297;59490;-88
2023/06/05 06:11:38;;;;;;;;;;;;;;;25.30;40.29;101579.61;105557;1297;73356;-88
2023/06/05 06:14:24;;;;;;;;;;;;;;;25.67;40.02;101580.80;105460;1297;67437;-88
2023/06/05 06:17:10;;;;;;;;;;;;;;;25.93;39.62;101580.70;105455;1297;71463;-88
2023/06/05 06:19:57;;;;;;;;;;;;;;;26.21;39.34;101582.23;105580;1297;59004;-88
2023/06/05 06:22:43;;;;;;;;;;;;;;;26.58;39.06;101580.40;105542;1298;59282;-88
2023/06/05 06:25:31;;;;;;;;;;;;;;;27.00;39.04;101584.45;105517;1297;74207;-88
2023/06/05 06:28:17;;;;;;;;;;;;;;;27.47;38.49;101584.29;105615;1296;69295;-88
2023/06/05 06:31:03;;;;;;;;;;;;;;;27.91;38.29;101583.18;105660;1297;73127;-88
2023/06/05 06:33:49;;;;;;;;;;;;;;;28.45;38.03;101582.52;105406;1297;59029;-88
2023/06/05 06:36:40;;;;;;;;;;;;;;;29.15;37.49;101588.97;105440;1297;58922;-88
2023/06/05 06:39:26;;;;;;;;;;;;;;;29.83;37.30;101588.15;105437;1297;73450;-88
2023/06/05 06:42:15;;;;;;;;;;;;;;;30.55;36.87;101587.20;105421;1297;68632;-88
2023/06/05 06:45:01;;;;;;;;;;;;;;;31.00;36.55;101590.66;105506;1297;72580;-88
2023/06/05 06:47:47;;;;;;;;;;;;;;;31.24;35.84;101592.11;105373;1297;58976;-88
2023/06/05 06:50:34;;;;;;;;;;;;;;;31.41;36.39;101593.98;105505;1297;59439;-88
2023/06/05 06:53:20;;;;;;;;;;;;;;;31.55;35.88;101591.52;105431;1297;73991;-88
2023/06/05 06:56:06;;;;;;;;;;;;;;;31.38;35.91;101590.67;105448;1301;69058;-88
2023/06/05 06:58:53;;;;;;;;;;;;;;;31.75;35.59;101590.63;105494;1297;71660;-89
2023/06/05 07:01:44;;;;;;;;;;;;;;;32.56;35.14;101592.53;105444;1297;59065;-88
2023/06/05 07:04:30;;;;;;;;;;;;;;;33.32;34.32;101593.55;105485;1297;58983;-88
2023/06/05 07:07:17;;;;;;;;;;;;;;;34.03;33.86;101590.11;105460;1299;73291;-88
2023/06/05 07:10:03;;;;;;;;;;;;;;;34.69;33.59;101589.06;105550;1297;67348;-88
2023/06/05 07:12:50;;;;;;;;;;;;;;;35.37;32.64;101586.08;105461;1299;71412;-89
2023/06/05 07:15:36;;;;;;;;;;;;;;;36.26;32.68;101590.27;105441;1299;58889;-88
2023/06/05 07:18:22;;;;;;;;;;;;;;;36.88;32.25;101588.15;105493;1297;59739;-89
2023/06/05 07:21:08;;;;;;;;;;;;;;;37.21;31.79;101590.95;105513;1297;73250;-88
2023/06/05 07:23:54;;;;;;;;;;;;;;;36.72;32.04;101589.80;105421;1298;67523;-89
2023/06/05 07:26:40;;;;;;;;;;;;;;;36.12;31.92;101589.23;105540;1298;72369;-88
2023/06/05 07:29:26;;;;;;;;;;;;;;;35.64;31.59;101584.83;105454;1297;59120;-86
2023/06/05 07:32:13;;;;;;;;;;;;;;;36.03;31.14;101587.52;105491;1297;60398;-86
2023/06/05 07:34:58;;;;;;;;;;;;;;;35.75;30.39;101587.25;105632;1296;73224;-86
2023/06/05 07:37:45;;;;;;;;;;;;;;;35.10;30.38;101590.55;105433;1299;67382;-86
2023/06/05 07:40:31;;;;;;;;;;;;;;;34.73;30.38;101586.84;105487;1298;71896;-86
2023/06/05 07:43:17;;;;;;;;;;;;;;;35.36;29.64;101586.86;105515;1297;59559;-86
2023/06/05 07:46:04;;;;;;;;;;;;;;;36.88;29.04;101591.23;105585;1297;59423;-86
2023/06/05 07:48:50;;;;;;;;;;;;;;;38.38;28.26;101593.05;105651;1296;74772;-86
2023/06/05 07:51:37;;;;;;;;;;;;;;;39.50;27.71;101593.05;105530;1297;68393;-86
2023/06/05 07:54:23;;;;;;;;;;;;;;;40.47;27.49;101597.36;105478;1296;71660;-86
2023/06/05 07:57:10;;;;;;;;;;;;;;;41.14;26.98;101593.84;105515;1297;59297;-86
2023/06/05 07:59:56;;;;;;;;;;;;;;;41.91;26.61;101592.80;105444;1297;59999;-86
2023/06/05 08:02:43;;;;;;;;;;;;;;;42.53;26.49;101591.66;105549;1296;74497;-87
2023/06/05 08:05:29;;;;;;;;;;;;;;;43.31;26.06;101585.84;105486;1296;69496;-87
2023/06/05 08:08:16;;;;;;;;;;;;;;;43.99;25.83;101585.10;105470;1297;73364;-86
2023/06/05 08:11:01;;;;;;;;;;;;;;;44.26;25.32;101578.12;105469;1297;58980;-86
2023/06/05 08:13:47;;;;;;;;;;;;;;;44.71;25.22;101581.88;105553;1296;59381;-86
2023/06/05 08:16:34;;;;;;;;;;;;;;;45.17;24.88;101578.86;105474;1300;74276;-86
2023/06/05 08:19:20;;;;;;;;;;;;;;;45.54;24.43;101580.51;105514;1297;68362;-87
2023/06/05 08:22:06;;;;;;;;;;;;;;;45.96;23.82;101580.45;105527;1297;71411;-87
2023/06/05 08:24:54;;;;;;;;;;;;;;;46.20;23.63;101583.13;105487;1297;59174;-86
2023/06/05 08:27:40;;;;;;;;;;;;;;;46.31;23.37;101583.21;105508;1297;59473;-87
2023/06/05 08:30:26;;;;;;;;;;;;;;;46.54;22.97;101586.72;105447;1297;73503;-87
2023/06/05 08:36:35;;;;;;;;;;;;;;;47.16;22.19;101578.58;105562;1297;62616;-87
2023/06/05 08:39:21;;;;;;;;;;;;;;;47.56;21.78;101577.97;105476;1297;59127;-87
2023/06/05 08:42:07;;;;;;;;;;;;;;;47.74;21.05;101577.59;105466;1297;58978;-87
2023/06/05 08:44:54;;;;;;;;;;;;;;;47.77;20.95;101571.01;105470;1297;74677;-87
2023/06/05 08:47:41;;;;;;;;;;;;;;;47.90;20.52;101573.78;105540;1296;59270;-87
2023/06/05 08:50:29;;;;;;;;;;;;;;;47.89;20.42;101572.19;105539;1297;65309;-87
2023/06/05 08:53:17;;;;;;;;;;;;;;;47.80;19.84;101569.84;105572;1297;59132;-87
2023/06/05 08:56:03;;;;;;;;;;;;;;;46.98;18.94;101566.61;105461;1297;59091;-87
2023/06/05 08:58:49;;;;;;;;;;;;;;;44.57;19.29;101560.98;105356;1296;74421;-87
2023/06/05 09:01:37;;;;;;;;;;;;;;;41.69;19.34;101552.60;105431;1297;68439;-87
2023/06/05 09:04:29;;;;;;;;;;;;;;;39.34;19.31;101551.79;105490;1297;73167;-86
2023/06/05 09:07:16;;;;;;;;;;;;;;;37.33;19.20;101550.63;105475;1299;59181;-86
2023/06/05 09:10:03;;;;;;;;;;;;;;;35.83;19.14;101540.55;105526;1297;59906;-86
2023/06/05 09:12:54;;;;;;;;;;;;;;;34.57;18.97;101540.36;105550;1297;73826;-86
2023/06/05 09:15:40;;;;;;;;;;;;;;;33.38;18.83;101538.39;105528;1297;69097;-86
2023/06/05 09:18:28;;;;;;;;;;;;;;;32.34;18.62;101538.59;105381;1297;72355;-86
2023/06/05 09:21:15;;;;;;;;;;;;;;;31.52;18.82;101536.70;105431;1297;58478;-86
2023/06/05 09:24:13;;;;;;;;;;;;;;;30.80;18.75;101537.88;105487;1297;206134;-85
2023/06/05 09:27:04;;;;;;;;;;;;;;;29.91;18.66;101534.86;105617;1297;73127;-85
2023/06/05 09:30:01;;;;;;;;;;;;;;;29.17;18.80;101532.50;105445;1297;67386;-85
2023/06/05 09:32:46;;;;;;;;;;;;;;;28.65;18.82;101532.02;105646;1297;71286;-85
2023/06/05 09:35:33;;;;;;;;;;;;;;;28.13;18.92;101522.67;105629;1296;58400;-85
2023/06/05 09:38:25;;;;;;;;;;;;;;;27.75;19.12;101530.29;105507;1297;60128;-85
2023/06/05 09:41:14;;;;;;;;;;;;;;;27.42;19.00;101527.59;105686;1296;73399;-85
2023/06/05 09:44:06;;;;;;;;;;;;;;;27.03;19.05;101522.95;105606;1297;67262;-87
2023/06/05 09:46:56;;;;;;;;;;;;;;;26.62;19.10;101515.77;105632;1296;71403;-87
2023/06/05 09:49:42;;;;;;;;;;;;;;;26.37;19.37;101519.98;105512;1296;58990;-87
2023/06/05 09:52:29;;;;;;;;;;;;;;;26.20;19.34;101517.54;105591;1297;59904;-87
2023/06/05 09:55:15;;;;;;;;;;;;;;;25.99;19.61;101522.14;105525;1297;73456;-87
2023/06/05 09:58:10;;;;;;;;;;;;;;;25.79;19.60;101517.13;105402;1297;66355;-87
2023/06/05 10:00:59;;;;;;;;;;;;;;;25.60;19.61;101512.67;105422;1297;71562;-87
2023/06/05 10:03:48;;;;;;;;;;;;;;;25.40;19.77;101510.80;105505;1297;59088;-87
2023/06/05 10:06:35;;;;;;;;;;;;;;;25.33;19.92;101513.01;105465;1297;59468;-87
2023/06/05 10:09:21;;;;;;;;;;;;;;;25.12;19.97;101515.25;105589;1297;73376;-87
2023/06/05 10:12:08;;;;;;;;;;;;;;;24.88;19.85;101510.39;105462;1297;67212;-87
2023/06/05 10:14:57;;;;;;;;;;;;;;;24.68;20.02;101507.17;105434;1297;73221;-87
2023/06/05 10:17:44;;;;;;;;;;;;;;;24.52;20.09;101506.98;105439;1298;59445;-87
2023/06/05 10:20:30;;;;;;;;;;;;;;;24.41;20.05;101502.55;105616;1297;59916;-87
2023/06/05 10:23:17;;;;;;;;;;;;;;;24.32;20.25;101496.02;105544;1297;73203;-87
2023/06/05 10:26:05;;;;;;;;;;;;;;;24.29;20.32;101490.37;105596;1297;67548;-87
2023/06/05 10:29:00;;;;;;;;;;;;;;;24.35;20.54;101490.38;105518;1296;71444;-87
2023/06/05 10:31:53;;;;;;;;;;;;;;;24.38;20.59;101497.38;105608;1296;59072;-87
2023/06/05 10:34:39;;;;;;;;;;;;;;;24.42;20.71;101489.20;105656;1297;59169;-87
2023/06/05 10:37:28;;;;;;;;;;;;;;;24.48;20.59;101489.42;105629;1296;72948;-87
2023/06/05 10:40:15;;;;;;;;;;;;;;;24.31;20.70;101493.24;105601;1297;67308;-87
2023/06/05 10:43:20;;;;;;;;;;;;;;;24.22;20.74;101491.66;105587;1297;71188;-87
2023/06/05 10:46:25;;;;;;;;;;;;;;;24.19;20.79;101490.80;105656;1296;59187;-87
2023/06/05 10:49:12;;;;;;;;;;;;;;;24.19;21.03;101487.61;105602;1297;60767;-87
2023/06/05 10:52:00;;;;;;;;;;;;;;;24.24;21.07;101483.25;105423;1297;73598;-87
2023/06/05 10:54:46;;;;;;;;;;;;;;;24.27;21.05;101477.11;105521;1297;67514;-87
2023/06/05 10:57:51;;;;;;;;;;;;;;;24.30;21.16;101470.02;105523;1297;72479;-87
2023/06/05 11:00:38;;;;;;;;;;;;;;;24.35;21.23;101471.86;105588;1297;58772;-87
2023/06/05 11:03:42;;;;;;;;;;;;;;;24.37;21.15;101466.26;105559;1297;59021;-87
2023/06/05 11:06:28;;;;;;;;;;;;;;;24.39;21.35;101462.46;105582;1297;72969;-87
2023/06/05 11:09:14;;;;;;;;;;;;;;;24.43;21.47;101457.81;105596;1297;67617;-87
2023/06/05 11:12:01;;;;;;;;;;;;;;;24.51;21.67;101456.27;105581;1297;71224;-87
2023/06/05 11:14:47;;;;;;;;;;;;;;;24.61;21.83;101454.41;105447;1299;59250;-87
2023/06/05 11:17:35;;;;;;;;;;;;;;;24.60;21.59;101453.95;105458;1297;60833;-87
2023/06/05 11:20:21;;;;;;;;;;;;;;;24.57;21.91;101458.73;105437;1297;75583;-87
2023/06/05 11:23:07;;;;;;;;;;;;;;;24.61;21.86;101462.52;105615;1297;67229;-87
2023/06/05 11:25:56;;;;;;;;;;;;;;;24.61;21.77;101455.45;105576;1297;72375;-87
2023/06/05 13:56:59;;;;;;;;;;;;;;;24.90;23.48;101341.80;103960;1296;71405;-86
2023/06/05 13:59:45;;;;;;;;;;;;;;;24.91;23.54;101341.05;105535;1297;59813;-86
2023/06/05 14:02:32;;;;;;;;;;;;;;;24.89;23.39;101334.64;105536;1296;59256;-86
2023/06/05 14:05:18;;;;;;;;;;;;;;;24.85;23.53;101327.52;105602;1296;72524;-86
2023/06/05 14:08:04;;;;;;;;;;;;;;;24.84;23.65;101322.28;105550;1296;67843;-86
2023/06/05 14:10:50;;;;;;;;;;;;;;;24.85;23.60;101319.89;105525;1295;72447;-87
2023/06/05 14:13:36;;;;;;;;;;;;;;;24.89;23.82;101320.34;105607;1295;59191;-87
2023/06/05 14:16:22;;;;;;;;;;;;;;;24.92;23.64;101318.95;105528;1296;58886;-86
2023/06/05 14:19:08;;;;;;;;;;;;;;;24.93;23.75;101315.35;105452;1297;74298;-86
2023/06/05 14:21:55;;;;;;;;;;;;;;;24.95;23.79;101318.73;105559;1296;66211;-86
2023/06/05 14:24:42;;;;;;;;;;;;;;;24.92;23.75;101317.36;105537;1296;71463;-87
2023/06/05 14:27:28;;;;;;;;;;;;;;;24.92;23.92;101315.08;105479;1296;59345;-86
2023/06/05 14:30:14;;;;;;;;;;;;;;;24.94;23.85;101314.23;105489;1297;59621;-87
2023/06/05 14:33:00;;;;;;;;;;;;;;;24.90;23.79;101312.15;105343;1297;73455;-87
2023/06/05 14:35:46;;;;;;;;;;;;;;;24.85;23.79;101309.48;105305;1297;67783;-87
2023/06/05 14:38:32;;;;;;;;;;;;;;;24.85;23.87;101306.88;105386;1297;72213;-87
2023/06/05 14:41:18;;;;;;;;;;;;;;;24.82;23.98;101304.22;105322;1297;59296;-87
2023/06/05 14:44:05;;;;;;;;;;;;;;;24.84;24.02;101304.13;105492;1297;59298;-87
2023/06/05 14:46:53;;;;;;;;;;;;;;;24.84;24.06;101306.23;105385;1297;73387;-87
2023/06/05 14:49:39;;;;;;;;;;;;;;;24.80;23.80;101305.08;105366;1297;67333;-87
2023/06/05 14:52:25;;;;;;;;;;;;;;;24.70;23.85;101300.62;105316;1299;72063;-87
2023/06/05 14:55:12;;;;;;;;;;;;;;;24.68;23.95;101299.48;105508;1297;59116;-87
2023/06/05 14:57:58;;;;;;;;;;;;;;;24.68;23.96;101296.66;105442;1297;59070;-87
2023/06/05 15:00:45;;;;;;;;;;;;;;;24.69;23.94;101298.56;105424;1297;73408;-87
2023/06/05 15:03:31;;;;;;;;;;;;;;;24.66;23.98;101292.73;105360;1297;68353;-87
2023/06/05 15:06:17;;;;;;;;;;;;;;;24.65;23.91;101287.86;105379;1297;73076;-87
2023/06/05 15:09:03;;;;;;;;;;;;;;;24.66;23.90;101287.83;105358;1297;59061;-87
2023/06/05 15:11:55;;;;;;;;;;;;;;;24.68;24.00;101285.39;105395;1297;59432;-87
2023/06/05 15:14:41;;;;;;;;;;;;;;;24.69;23.97;101283.94;105388;1297;72812;-88
2023/06/05 15:17:27;;;;;;;;;;;;;;;24.70;23.96;101288.04;105324;1297;67991;-88
2023/06/05 15:20:13;;;;;;;;;;;;;;;24.73;24.08;101283.48;105504;1297;71708;-89
2023/06/05 15:22:59;;;;;;;;;;;;;;;24.72;24.06;101281.58;105193;1297;59202;-89
2023/06/05 15:25:45;;;;;;;;;;;;;;;24.70;23.96;101278.58;105202;1297;59462;-89
2023/06/05 15:28:31;;;;;;;;;;;;;;;24.67;24.07;101282.08;105445;1297;74682;-89
2023/06/05 15:31:17;;;;;;;;;;;;;;;24.68;24.09;101279.91;105301;1297;68697;-89
2023/06/05 15:34:03;;;;;;;;;;;;;;;24.68;24.06;101276.54;105472;1297;71404;-89
2023/06/05 15:36:49;;;;;;;;;;;;;;;24.69;24.09;101274.39;105292;1301;258223;-89
2023/06/05 15:39:35;;;;;;;;;;;;;;;24.66;23.98;101272.98;105409;1299;58843;-89
2023/06/05 15:42:29;;;;;;;;;;;;;;;24.61;24.01;101275.11;105491;1296;73488;-89
2023/06/05 15:45:15;;;;;;;;;;;;;;;24.57;24.08;101270.07;105381;1299;67308;-89
2023/06/05 15:48:01;;;;;;;;;;;;;;;24.55;24.06;101266.69;105465;1297;71395;-88
2023/06/05 15:50:47;;;;;;;;;;;;;;;24.53;24.21;101263.95;105356;1300;59329;-89
2023/06/05 15:53:33;;;;;;;;;;;;;;;24.53;24.20;101263.79;105434;1297;59012;-89
2023/06/05 15:56:19;;;;;;;;;;;;;;;24.54;24.13;101264.23;105388;1298;74231;-89
2023/06/05 15:59:05;;;;;;;;;;;;;;;24.55;24.25;101269.31;105423;1297;67538;-89
2023/06/05 16:01:53;;;;;;;;;;;;;;;24.56;24.36;101267.50;105438;1298;71220;-88
2023/06/05 16:04:40;;;;;;;;;;;;;;;24.60;24.36;101270.59;105417;1297;59337;-89
2023/06/05 16:07:26;;;;;;;;;;;;;;;24.60;24.41;101270.59;105538;1297;60297;-88
2023/06/05 16:10:12;;;;;;;;;;;;;;;24.59;24.38;101266.97;105421;1297;73378;-89
2023/06/05 16:12:58;;;;;;;;;;;;;;;24.58;24.48;101267.69;105487;1297;67308;-89
2023/06/05 16:15:45;;;;;;;;;;;;;;;24.59;24.52;101264.64;105406;1297;72902;-88
2023/06/05 16:18:31;;;;;;;;;;;;;;;24.59;24.38;101260.92;105459;1297;59303;-88
2023/06/05 16:21:16;;;;;;;;;;;;;;;24.60;24.51;101262.48;105516;1297;59866;-88
2023/06/05 16:24:02;;;;;;;;;;;;;;;24.60;24.49;101263.00;105387;1297;73782;-88
2023/06/05 16:26:48;;;;;;;;;;;;;;;24.58;24.48;101258.56;105419;1297;68400;-88
2023/06/05 16:29:34;;;;;;;;;;;;;;;24.55;24.54;101253.45;105429;1297;71418;-89
2023/06/05 16:32:20;;;;;;;;;;;;;;;24.54;24.61;101254.25;105416;1297;59398;-89
2023/06/05 16:35:07;;;;;;;;;;;;;;;24.52;24.68;101253.80;105433;1297;58932;-89
2023/06/05 16:37:53;;;;;;;;;;;;;;;24.52;24.69;101254.02;105499;1298;73336;-89
2023/06/05 16:40:39;;;;;;;;;;;;;;;24.52;24.75;101250.81;105434;1297;67510;-89